Time;durP1;ratioP1;P1;durP2;ratioP2;P2;SDS_P1;SDS_P2;PMS_P1;PMS_P2;Temp;Humidity;BMP_temperature;BMP_pressure;BME280_temperature;BME280_humidity;BME280_pressure;Samples;Min_cycle;Max_cycle;Signal;HPM_P1;HPM_P2
2022/01/02 00:00:19;;;;;;;7.05;6.35;;;21.00;53.20;;;;;;4959874;28;20193;-75
2022/01/02 00:03:18;;;;;;;6.93;6.07;;;21.00;53.20;;;;;;4959779;28;20189;-75
2022/01/02 00:05:44;;;;;;;6.47;5.88;;;21.00;53.20;;;;;;4954878;29;20321;-75
2022/01/02 00:08:11;;;;;;;6.03;5.53;;;21.10;53.30;;;;;;4959638;28;20225;-75
2022/01/02 00:10:55;;;;;;;6.53;5.90;;;21.10;53.30;;;;;;4959581;28;20196;-75
2022/01/02 00:13:31;;;;;;;6.57;5.97;;;21.00;53.20;;;;;;4959615;28;20209;-74
2022/01/02 00:16:06;;;;;;;6.75;6.03;;;21.10;53.30;;;;;;4959191;28;20185;-74
2022/01/02 00:18:36;;;;;;;6.05;5.38;;;21.00;53.20;;;;;;4959603;28;20296;-75
2022/01/02 00:21:07;;;;;;;5.85;5.35;;;21.10;53.20;;;;;;4959350;28;20212;-75
2022/01/02 00:23:47;;;;;;;5.65;5.15;;;21.00;53.10;;;;;;4976851;28;20237;-75
2022/01/02 00:26:17;;;;;;;6.07;5.50;;;21.00;53.10;;;;;;4976286;28;20543;-75
2022/01/02 00:28:48;;;;;;;6.00;5.38;;;21.10;53.20;;;;;;4943397;28;20217;-75
2022/01/02 00:31:15;;;;;;;5.97;5.38;;;21.10;53.20;;;;;;4959466;28;20194;-75
2022/01/02 00:33:41;;;;;;;6.13;5.53;;;21.10;53.10;;;;;;4939860;28;20230;-75
2022/01/02 00:36:07;;;;;;;6.35;5.40;;;21.10;53.10;;;;;;4939378;29;20186;-75
2022/01/02 00:38:35;;;;;;;5.97;5.38;;;21.10;53.10;;;;;;4939254;29;20225;-75
2022/01/02 00:41:01;;;;;;;6.15;5.60;;;21.10;53.10;;;;;;4939746;29;20180;-74
2022/01/02 00:43:51;;;;;;;7.00;5.60;;;21.10;53.10;;;;;;4939734;29;20198;-75
2022/01/02 00:46:19;;;;;;;5.82;5.30;;;21.00;53.00;;;;;;4923913;29;20187;-75
2022/01/02 00:48:47;;;;;;;6.03;5.43;;;21.00;53.00;;;;;;4939650;29;20227;-75
2022/01/02 00:51:43;;;;;;;5.43;4.93;;;21.00;52.90;;;;;;4955383;29;20626;-74
2022/01/02 00:54:15;;;;;;;5.95;5.40;;;21.10;53.00;;;;;;4955189;29;20222;-74
2022/01/02 00:56:46;;;;;;;5.75;5.25;;;21.10;53.00;;;;;;4923839;29;20185;-75
2022/01/02 00:59:28;;;;;;;5.57;5.07;;;21.10;53.00;;;;;;4923524;29;20228;-75
2022/01/02 01:02:04;;;;;;;6.00;5.40;;;21.10;53.00;;;;;;4939728;29;20238;-75
2022/01/02 01:04:32;;;;;;;5.93;5.32;;;21.00;52.90;;;;;;4923544;29;20175;-75
2022/01/02 01:07:07;;;;;;;5.90;5.30;;;21.00;52.80;;;;;;4939163;29;20197;-75
2022/01/02 01:09:34;;;;;;;5.65;5.18;;;21.00;52.90;;;;;;4923590;29;20188;-75
2022/01/02 01:12:03;;;;;;;6.10;5.50;;;21.10;52.90;;;;;;4939508;29;20190;-74
2022/01/02 01:14:30;;;;;;;6.10;5.53;;;21.00;52.80;;;;;;4923373;29;20232;-75
2022/01/02 01:16:57;;;;;;;5.85;5.30;;;21.10;52.80;;;;;;4923381;29;20234;-75
2022/01/02 01:19:25;;;;;;;5.50;4.93;;;21.10;52.90;;;;;;4938933;29;20662;-75
2022/01/02 01:21:51;;;;;;;5.28;4.78;;;21.10;52.80;;;;;;4923126;29;20195;-75
2022/01/02 01:24:19;;;;;;;5.93;5.38;;;21.10;52.90;;;;;;4923201;29;20186;-75
2022/01/02 01:26:47;;;;;;;6.55;5.18;;;21.10;52.80;;;;;;4923472;29;20579;-75
2022/01/02 01:29:13;;;;;;;5.47;4.97;;;21.00;52.70;;;;;;4922974;29;20207;-75
2022/01/02 01:31:39;;;;;;;5.40;4.90;;;21.10;52.90;;;;;;4923072;29;20212;-75
2022/01/02 01:34:05;;;;;;;5.65;5.10;;;21.00;52.70;;;;;;4923375;29;20264;-75
2022/01/02 01:36:31;;;;;;;5.47;4.97;;;21.10;52.80;;;;;;4938826;29;20177;-75
2022/01/02 01:38:57;;;;;;;5.40;4.90;;;21.10;52.80;;;;;;4922935;29;20214;-75
2022/01/02 01:41:34;;;;;;;5.97;5.38;;;21.10;52.80;;;;;;4938944;29;20233;-75
2022/01/02 01:44:20;;;;;;;5.90;5.30;;;21.10;52.80;;;;;;4922849;29;20188;-75
2022/01/02 01:46:54;;;;;;;5.50;5.00;;;21.10;52.80;;;;;;4923187;29;20206;-75
2022/01/02 01:49:29;;;;;;;5.30;4.80;;;21.10;52.80;;;;;;4937989;29;20170;-75
2022/01/02 01:51:55;;;;;;;5.00;4.50;;;21.10;52.80;;;;;;4938830;29;20174;-75
2022/01/02 01:54:23;;;;;;;4.93;4.53;;;21.00;52.60;;;;;;4922788;29;20217;-75
2022/01/02 01:56:51;;;;;;;5.95;4.90;;;21.10;52.70;;;;;;4923940;29;20193;-75
2022/01/02 01:59:20;;;;;;;5.65;5.15;;;21.10;52.70;;;;;;4935433;29;20191;-75
2022/01/02 02:01:48;;;;;;;5.30;4.63;;;21.10;52.70;;;;;;4919735;29;20184;-75
2022/01/02 02:04:15;;;;;;;5.32;4.82;;;21.00;52.60;;;;;;4919119;29;20211;-75
2022/01/02 02:06:42;;;;;;;4.88;4.47;;;21.00;52.60;;;;;;4919244;29;20245;-75
2022/01/02 02:09:09;;;;;;;5.05;4.57;;;21.10;52.60;;;;;;4935208;29;20595;-75
2022/01/02 02:11:38;;;;;;;4.90;4.40;;;21.00;52.60;;;;;;4919468;29;20183;-75
2022/01/02 02:14:07;;;;;;;5.07;4.65;;;21.10;52.60;;;;;;4934769;29;20211;-75
2022/01/02 02:16:36;;;;;;;4.78;4.35;;;21.10;52.60;;;;;;4919130;29;20556;-75
2022/01/02 02:19:04;;;;;;;6.50;5.10;;;21.10;52.60;;;;;;4918927;29;20199;-75
2022/01/02 02:21:37;;;;;;;5.30;4.85;;;21.10;52.50;;;;;;4919260;29;20270;-75
2022/01/02 02:24:06;;;;;;;5.30;4.80;;;21.10;52.50;;;;;;4934733;29;20183;-75
2022/01/02 02:26:37;;;;;;;5.60;5.10;;;21.00;52.50;;;;;;4918637;29;20191;-75
2022/01/02 02:29:05;;;;;;;4.80;4.30;;;21.10;52.60;;;;;;4919076;29;20211;-75
2022/01/02 02:31:32;;;;;;;5.28;4.88;;;21.00;52.40;;;;;;4934574;29;20567;-75
2022/01/02 02:33:58;;;;;;;5.25;4.75;;;21.10;52.50;;;;;;4918708;29;20218;-74
2022/01/02 02:36:23;;;;;;;4.30;3.90;;;21.00;52.50;;;;;;4934751;29;20191;-75
2022/01/02 02:38:49;;;;;;;4.97;4.47;;;21.10;52.50;;;;;;4934620;29;20218;-75
2022/01/02 02:41:15;;;;;;;4.85;4.35;;;21.00;52.40;;;;;;4918976;29;20225;-75
2022/01/02 02:49:04;;;;;;;4.50;4.10;;;21.10;52.40;;;;;;4934266;29;20207;-75
2022/01/02 02:51:49;;;;;;;4.55;4.15;;;21.10;52.40;;;;;;4918543;29;20183;-74
2022/01/02 02:54:28;;;;;;;4.85;4.40;;;21.10;52.20;;;;;;4934134;29;20235;-74
2022/01/02 02:56:59;;;;;;;5.22;4.72;;;21.10;52.40;;;;;;4934453;29;20184;-75
2022/01/02 02:59:32;;;;;;;4.90;4.50;;;21.00;52.10;;;;;;4918709;29;20733;-75
2022/01/02 03:01:59;;;;;;;4.43;4.03;;;21.00;52.10;;;;;;4933940;29;20217;-75
2022/01/02 03:04:28;;;;;;;4.68;4.28;;;21.00;52.10;;;;;;4918819;29;20189;-75
2022/01/02 03:06:54;;;;;;;5.05;4.40;;;21.00;52.10;;;;;;4925104;29;20285;-75
2022/01/02 03:09:37;;;;;;;4.88;4.20;;;21.10;52.20;;;;;;4945354;29;20190;-75
2022/01/02 03:12:10;;;;;;;4.53;4.05;;;21.10;52.20;;;;;;4921390;29;20179;-75
2022/01/02 03:14:39;;;;;;;4.80;4.30;;;21.00;52.10;;;;;;4921868;29;20209;-76
2022/01/02 03:17:05;;;;;;;4.25;3.88;;;21.00;52.10;;;;;;4941546;29;20248;-75
2022/01/02 03:19:32;;;;;;;4.70;4.20;;;21.10;52.20;;;;;;4946587;29;20189;-75
2022/01/02 03:21:58;;;;;;;4.60;4.20;;;21.00;52.10;;;;;;4937214;29;20321;-75
2022/01/02 03:24:25;;;;;;;4.30;3.90;;;21.00;52.10;;;;;;4953305;28;20241;-75
2022/01/02 03:26:50;;;;;;;4.80;4.40;;;21.00;52.10;;;;;;4953185;28;20198;-75
2022/01/02 03:29:16;;;;;;;4.90;4.50;;;21.10;52.20;;;;;;4953152;29;20191;-75
2022/01/02 03:31:42;;;;;;;4.65;4.22;;;21.00;52.10;;;;;;4937205;29;20190;-75
2022/01/02 03:34:08;;;;;;;4.10;3.80;;;21.10;52.20;;;;;;4952941;29;20246;-75
2022/01/02 03:36:34;;;;;;;4.57;4.18;;;21.10;52.20;;;;;;4952944;28;20266;-75
2022/01/02 03:38:59;;;;;;;4.47;4.07;;;21.00;52.10;;;;;;4954355;29;20218;-75
2022/01/02 03:41:26;;;;;;;3.90;3.60;;;21.00;52.10;;;;;;4953029;29;20182;-75
2022/01/02 03:43:53;;;;;;;3.97;3.60;;;21.10;52.20;;;;;;4937164;29;20214;-74
2022/01/02 03:46:19;;;;;;;4.45;4.05;;;21.00;52.10;;;;;;4953897;28;20224;-75
2022/01/02 03:48:45;;;;;;;4.13;3.72;;;21.00;52.10;;;;;;4953050;29;20202;-75
2022/01/02 03:51:12;;;;;;;3.85;3.42;;;21.10;52.20;;;;;;4937176;29;20642;-75
2022/01/02 03:53:38;;;;;;;4.35;3.97;;;21.00;52.10;;;;;;4952697;29;20251;-75
2022/01/02 03:56:04;;;;;;;4.13;3.83;;;21.00;52.10;;;;;;4952536;29;20214;-75
2022/01/02 03:58:30;;;;;;;3.97;3.58;;;21.10;52.20;;;;;;4936887;29;20214;-75
2022/01/02 04:00:56;;;;;;;4.00;3.70;;;21.00;52.10;;;;;;4952719;29;20238;-75
2022/01/02 04:03:23;;;;;;;3.90;3.55;;;21.00;52.10;;;;;;4920972;29;20174;-75
2022/01/02 04:05:49;;;;;;;3.75;3.45;;;21.00;52.10;;;;;;4936883;29;20191;-74
2022/01/02 04:08:14;;;;;;;3.72;3.42;;;21.10;52.20;;;;;;4953839;29;20234;-75
2022/01/02 04:10:41;;;;;;;4.40;4.00;;;21.10;52.20;;;;;;4921300;29;20190;-75
2022/01/02 04:13:07;;;;;;;3.75;3.45;;;21.10;52.20;;;;;;4938306;29;20202;-75
2022/01/02 04:15:34;;;;;;;4.22;3.83;;;21.10;52.20;;;;;;4940282;29;20722;-75
2022/01/02 04:18:00;;;;;;;3.97;3.58;;;21.10;52.20;;;;;;4940112;28;20203;-75
2022/01/02 04:20:26;;;;;;;4.13;3.70;;;21.10;52.20;;;;;;4940313;29;20208;-75
2022/01/02 04:22:52;;;;;;;4.43;4.00;;;21.10;52.20;;;;;;4940478;28;20179;-75
2022/01/02 04:25:19;;;;;;;3.90;3.50;;;21.10;52.20;;;;;;4924332;29;20190;-75
2022/01/02 04:27:44;;;;;;;4.13;3.72;;;21.10;52.20;;;;;;4924419;29;20257;-75
2022/01/02 04:30:13;;;;;;;4.10;3.75;;;21.10;52.00;;;;;;4924303;29;20186;-75
2022/01/02 04:32:41;;;;;;;4.10;3.70;;;21.10;52.10;;;;;;4924283;29;20277;-75
2022/01/02 04:35:08;;;;;;;3.80;3.50;;;21.10;52.10;;;;;;4939794;29;20711;-75
2022/01/02 04:37:35;;;;;;;4.25;3.85;;;21.10;52.10;;;;;;4924123;29;20241;-75
2022/01/02 04:40:03;;;;;;;3.78;3.47;;;21.00;52.10;;;;;;4924355;29;20233;-74
2022/01/02 04:42:30;;;;;;;4.13;3.72;;;21.10;52.00;;;;;;4924065;29;20295;-74
2022/01/02 04:44:55;;;;;;;3.58;3.28;;;21.10;52.00;;;;;;4923892;29;20194;-75
2022/01/02 04:47:21;;;;;;;3.75;3.45;;;21.10;52.10;;;;;;4939647;29;20214;-75
2022/01/02 04:49:47;;;;;;;3.83;3.45;;;21.10;52.00;;;;;;4924168;29;20194;-74
2022/01/02 04:52:13;;;;;;;3.83;3.53;;;21.00;51.90;;;;;;4940127;29;20669;-75
2022/01/02 04:54:39;;;;;;;4.13;3.35;;;21.10;52.00;;;;;;4938838;29;20245;-75
2022/01/02 04:57:05;;;;;;;3.53;3.22;;;21.10;51.90;;;;;;4923957;29;20194;-75
2022/01/02 04:59:31;;;;;;;3.53;3.22;;;21.00;51.80;;;;;;4923720;29;20182;-75
2022/01/02 05:01:58;;;;;;;3.58;3.28;;;21.00;51.80;;;;;;4923899;29;20189;-75
2022/01/02 05:04:24;;;;;;;3.50;3.20;;;21.10;51.90;;;;;;4923323;29;20190;-75
2022/01/02 05:06:49;;;;;;;3.72;3.42;;;21.10;51.80;;;;;;4939681;28;20201;-75
2022/01/02 05:09:15;;;;;;;3.75;3.45;;;21.10;51.80;;;;;;4939517;29;20210;-75
2022/01/02 05:11:42;;;;;;;3.95;3.65;;;21.10;51.80;;;;;;4939603;29;20193;-75
2022/01/02 05:14:08;;;;;;;4.05;3.63;;;21.10;51.80;;;;;;4956587;29;20199;-75
2022/01/02 05:16:34;;;;;;;4.80;4.13;;;21.10;51.80;;;;;;4923185;29;20205;-75
2022/01/02 05:19:00;;;;;;;4.10;3.70;;;21.10;51.70;;;;;;4923461;29;20225;-74
2022/01/02 05:21:26;;;;;;;5.05;3.65;;;21.10;51.80;;;;;;4923674;29;20638;-75
2022/01/02 05:23:52;;;;;;;4.38;3.97;;;21.00;51.60;;;;;;4939085;29;20197;-75
2022/01/02 05:26:18;;;;;;;4.15;3.75;;;21.10;51.80;;;;;;4939182;28;20190;-74
2022/01/02 05:28:46;;;;;;;4.40;4.00;;;21.10;51.70;;;;;;4938782;29;20210;-75
2022/01/02 05:31:11;;;;;;;3.97;3.67;;;21.10;52.30;;;;;;4923417;29;20190;-75
2022/01/02 05:33:38;;;;;;;4.30;3.90;;;21.10;51.70;;;;;;4939239;28;20242;-75
2022/01/02 05:36:05;;;;;;;3.83;3.47;;;21.10;51.70;;;;;;4922798;29;20222;-75
2022/01/02 05:38:30;;;;;;;3.97;3.67;;;21.10;51.80;;;;;;4938844;29;20210;-75
2022/01/02 05:40:57;;;;;;;4.15;3.22;;;21.00;51.60;;;;;;4939017;29;20187;-75
2022/01/02 05:43:24;;;;;;;4.18;3.78;;;21.00;51.60;;;;;;4923311;29;20182;-75
2022/01/02 05:45:49;;;;;;;3.50;3.20;;;21.00;51.60;;;;;;4938496;29;20217;-75
2022/01/02 05:48:16;;;;;;;4.13;3.72;;;21.00;51.60;;;;;;4938562;29;20221;-75
2022/01/02 05:50:42;;;;;;;3.95;3.55;;;21.10;51.70;;;;;;4922715;29;20670;-75
2022/01/02 05:53:07;;;;;;;3.95;3.55;;;21.10;51.70;;;;;;4922925;29;20289;-75
2022/01/02 05:55:33;;;;;;;3.88;3.47;;;21.10;51.70;;;;;;4922515;29;20182;-75
2022/01/02 05:57:59;;;;;;;3.90;3.60;;;21.10;51.60;;;;;;4922752;29;20202;-75
2022/01/02 06:00:26;;;;;;;3.55;3.25;;;21.10;51.60;;;;;;4922734;29;20187;-75
2022/01/02 06:02:57;;;;;;;3.90;3.60;;;21.10;51.60;;;;;;4923661;29;20548;-75
2022/01/02 06:05:23;;;;;;;4.32;3.97;;;21.10;51.60;;;;;;4938386;29;20193;-75
2022/01/02 06:07:50;;;;;;;4.43;3.88;;;21.10;51.60;;;;;;4922434;29;20210;-75
2022/01/02 06:10:16;;;;;;;4.82;4.05;;;21.10;51.60;;;;;;4922480;29;20239;-75
2022/01/02 06:12:42;;;;;;;4.32;3.92;;;21.10;51.60;;;;;;4955386;29;20270;-75
2022/01/02 06:15:08;;;;;;;4.22;3.83;;;21.10;51.60;;;;;;4922395;29;20218;-75
2022/01/02 06:17:34;;;;;;;4.13;3.67;;;21.10;51.60;;;;;;4922481;29;20213;-75
2022/01/02 06:20:01;;;;;;;4.05;3.70;;;21.10;51.50;;;;;;4955157;29;20182;-75
2022/01/02 06:22:27;;;;;;;5.07;4.22;;;21.10;51.50;;;;;;4922374;29;20191;-75
2022/01/02 06:24:53;;;;;;;3.58;3.33;;;21.00;51.50;;;;;;4937833;28;20197;-75
2022/01/02 06:27:19;;;;;;;3.90;3.60;;;21.00;51.40;;;;;;4922102;29;20214;-75
2022/01/02 06:29:47;;;;;;;4.03;3.72;;;21.10;51.50;;;;;;4922612;29;20186;-75
2022/01/02 06:32:14;;;;;;;3.90;3.50;;;21.10;51.50;;;;;;4921956;29;20210;-75
2022/01/02 06:34:40;;;;;;;3.58;3.28;;;21.10;51.50;;;;;;4937651;28;20207;-75
2022/01/02 06:37:05;;;;;;;3.83;3.47;;;21.10;51.50;;;;;;4921231;29;20190;-75
2022/01/02 06:39:31;;;;;;;4.05;3.70;;;21.10;51.50;;;;;;4937755;29;20171;-75
2022/01/02 06:41:57;;;;;;;4.30;3.90;;;21.10;51.50;;;;;;4937985;29;20206;-75
2022/01/02 06:44:23;;;;;;;3.80;3.50;;;21.10;51.50;;;;;;4922044;29;20209;-75
2022/01/02 06:46:49;;;;;;;4.22;3.83;;;21.10;51.40;;;;;;4937640;29;20503;-75
2022/01/02 06:49:15;;;;;;;4.15;3.85;;;21.10;51.40;;;;;;4921833;29;20210;-75
2022/01/02 06:51:41;;;;;;;3.72;3.42;;;21.10;51.40;;;;;;4921929;29;20182;-75
2022/01/02 06:54:07;;;;;;;4.15;3.75;;;21.10;51.40;;;;;;4937489;29;20218;-75
2022/01/02 06:56:33;;;;;;;4.70;4.18;;;21.10;51.40;;;;;;4922233;29;20189;-74
2022/01/02 06:58:59;;;;;;;3.97;3.58;;;21.10;51.40;;;;;;4937528;29;20256;-75
2022/01/02 07:01:25;;;;;;;4.28;3.88;;;21.10;51.40;;;;;;4921674;29;20205;-75
2022/01/02 07:03:51;;;;;;;4.03;3.58;;;21.10;51.30;;;;;;4921553;29;20191;-75
2022/01/02 07:06:16;;;;;;;4.55;4.15;;;21.10;51.30;;;;;;4921721;29;20201;-75
2022/01/02 07:08:42;;;;;;;5.28;4.80;;;21.10;51.40;;;;;;4921391;29;20699;-75
2022/01/02 07:11:10;;;;;;;4.88;4.47;;;21.10;51.40;;;;;;4954424;29;20182;-75
2022/01/02 07:13:36;;;;;;;4.50;4.10;;;21.10;51.40;;;;;;4921671;29;20217;-75
2022/01/02 07:16:01;;;;;;;4.40;4.00;;;21.10;51.30;;;;;;4921090;29;20626;-75
2022/01/02 07:18:27;;;;;;;4.88;4.38;;;21.10;51.40;;;;;;4921623;29;20206;-75
2022/01/02 07:20:53;;;;;;;4.57;4.18;;;21.10;51.30;;;;;;4937235;29;20250;-75
2022/01/02 07:23:19;;;;;;;5.13;4.63;;;21.10;51.30;;;;;;4953153;29;20186;-75
2022/01/02 07:25:44;;;;;;;4.55;4.15;;;21.10;51.30;;;;;;4937030;29;20190;-75
2022/01/02 07:28:10;;;;;;;5.65;4.90;;;21.10;51.30;;;;;;4937247;29;20714;-75
2022/01/02 07:30:36;;;;;;;4.40;4.00;;;21.10;51.30;;;;;;4937236;29;20323;-75
2022/01/02 07:33:02;;;;;;;4.40;4.00;;;21.10;51.30;;;;;;4921316;29;20189;-75
2022/01/02 07:35:31;;;;;;;4.90;4.47;;;21.10;51.30;;;;;;4936754;29;20218;-74
2022/01/02 07:37:58;;;;;;;4.13;3.72;;;21.10;51.30;;;;;;4937119;29;20218;-75
2022/01/02 07:40:25;;;;;;;4.53;4.13;;;21.10;51.30;;;;;;4953197;29;20233;-74
2022/01/02 07:42:51;;;;;;;4.88;4.38;;;21.10;51.30;;;;;;4954476;29;20171;-75
2022/01/02 07:45:22;;;;;;;4.88;4.38;;;21.10;51.30;;;;;;4937128;29;20186;-75
2022/01/02 07:47:48;;;;;;;4.88;4.43;;;21.10;51.30;;;;;;4922010;29;20217;-75
2022/01/02 07:50:14;;;;;;;4.80;4.30;;;21.10;51.20;;;;;;4939665;29;20195;-75
2022/01/02 07:52:40;;;;;;;5.22;4.72;;;21.10;51.20;;;;;;4962249;28;20620;-73
2022/01/02 07:55:06;;;;;;;4.93;4.43;;;21.10;51.20;;;;;;4972565;28;20321;-74
2022/01/02 07:57:32;;;;;;;5.10;4.60;;;21.10;51.20;;;;;;4940687;29;20216;-73
2022/01/02 07:59:58;;;;;;;5.07;4.57;;;21.10;51.20;;;;;;4956613;29;20186;-73
2022/01/02 08:02:23;;;;;;;5.15;4.72;;;21.10;51.20;;;;;;4956476;28;20214;-74
2022/01/02 08:04:49;;;;;;;5.32;4.82;;;21.10;51.20;;;;;;4940054;29;20199;-74
2022/01/02 08:07:15;;;;;;;5.50;5.00;;;21.20;51.30;;;;;;4924326;29;20217;-74
2022/01/02 08:09:40;;;;;;;4.72;4.32;;;21.10;51.20;;;;;;4924459;29;20195;-74
2022/01/02 08:12:07;;;;;;;5.43;4.93;;;21.10;51.20;;;;;;4957498;29;20197;-74
2022/01/02 08:14:32;;;;;;;5.30;4.80;;;21.10;51.20;;;;;;4924306;29;20240;-74
2022/01/02 08:16:58;;;;;;;5.03;4.53;;;21.10;51.20;;;;;;4957339;29;20189;-74
2022/01/02 08:19:24;;;;;;;5.47;4.97;;;21.10;51.20;;;;;;4955973;29;20187;-74
2022/01/02 08:21:50;;;;;;;5.03;4.63;;;21.10;51.20;;;;;;4940200;29;20659;-74
2022/01/02 08:24:15;;;;;;;5.28;4.78;;;21.10;51.20;;;;;;4940232;29;20197;-74
2022/01/02 08:26:41;;;;;;;5.07;4.57;;;21.10;51.20;;;;;;4948794;29;20206;-74
2022/01/02 08:29:07;;;;;;;5.20;4.70;;;21.20;51.20;;;;;;4941036;28;20230;-72
2022/01/02 08:31:33;;;;;;;4.80;4.35;;;21.20;51.30;;;;;;4955593;29;20717;-74
2022/01/02 08:33:59;;;;;;;5.07;4.57;;;21.10;51.20;;;;;;4956138;29;20268;-73
2022/01/02 08:36:25;;;;;;;4.63;4.22;;;21.10;51.20;;;;;;4959078;28;20192;-74
2022/01/02 08:38:51;;;;;;;4.45;4.05;;;21.10;51.20;;;;;;4955622;29;20222;-73
2022/01/02 08:41:17;;;;;;;4.60;4.20;;;21.20;51.30;;;;;;4942979;28;20185;-73
2022/01/02 08:43:43;;;;;;;4.70;4.30;;;21.20;51.30;;;;;;4922980;29;20277;-73
2022/01/02 08:46:10;;;;;;;4.90;4.50;;;21.20;51.20;;;;;;4922920;28;20642;-74
2022/01/02 08:48:36;;;;;;;5.15;4.65;;;21.20;51.20;;;;;;4923911;29;20249;-73
2022/01/02 08:51:02;;;;;;;4.70;4.30;;;21.20;51.20;;;;;;4951247;28;20210;-74
2022/01/02 08:53:30;;;;;;;4.80;4.40;;;21.20;51.20;;;;;;4939307;29;20222;-74
2022/01/02 08:55:56;;;;;;;4.97;4.53;;;21.20;51.20;;;;;;4926630;29;20274;-74
2022/01/02 08:58:22;;;;;;;5.68;5.18;;;21.20;51.20;;;;;;4936003;29;20347;-74
2022/01/02 09:00:48;;;;;;;6.20;5.60;;;21.20;51.20;;;;;;4942980;29;20186;-74
2022/01/02 09:03:14;;;;;;;5.97;5.38;;;21.20;51.20;;;;;;4955352;28;20190;-74
2022/01/02 09:05:41;;;;;;;7.10;6.38;;;21.20;51.30;;;;;;4942451;29;20273;-74
2022/01/02 09:08:08;;;;;;;7.63;6.93;;;21.20;51.20;;;;;;4939386;29;20214;-75
2022/01/02 09:10:34;;;;;;;6.88;5.65;;;21.20;51.20;;;;;;4923583;29;20193;-74
2022/01/02 09:12:59;;;;;;;6.97;5.53;;;21.20;55.20;;;;;;4923717;29;20186;-74
2022/01/02 09:15:25;;;;;;;6.72;4.20;;;21.30;56.80;;;;;;4939379;29;20229;-74
2022/01/02 09:17:51;;;;;;;4.47;4.07;;;21.40;55.20;;;;;;4923236;29;20207;-74
2022/01/02 09:20:17;;;;;;;5.07;4.57;;;21.30;54.40;;;;;;4939157;29;20186;-74
2022/01/02 09:22:44;;;;;;;5.70;4.75;;;21.30;54.40;;;;;;4923385;29;20190;-73
2022/01/02 09:25:10;;;;;;;5.45;4.20;;;21.30;54.20;;;;;;4939123;29;20789;-73
2022/01/02 09:27:37;;;;;;;5.10;4.18;;;21.30;54.10;;;;;;4923220;29;20218;-73
2022/01/02 09:30:08;;;;;;;4.95;4.47;;;21.30;54.00;;;;;;4923537;29;20210;-73
2022/01/02 09:32:34;;;;;;;6.63;4.75;;;21.30;53.80;;;;;;4938990;29;20634;-73
2022/01/02 09:35:05;;;;;;;5.65;5.07;;;21.30;53.70;;;;;;4938672;29;20242;-73
2022/01/02 09:37:30;;;;;;;5.40;4.70;;;21.30;53.60;;;;;;4955953;28;20593;-72
2022/01/02 09:39:56;;;;;;;4.95;4.50;;;21.30;53.50;;;;;;4938832;29;20171;-72
2022/01/02 09:42:23;;;;;;;5.15;4.65;;;21.30;53.40;;;;;;4922892;29;20293;-71
2022/01/02 09:44:49;;;;;;;8.82;6.15;;;21.30;53.30;;;;;;4938453;29;20780;-71
2022/01/02 09:47:21;;;;;;;11.23;7.50;;;21.30;53.50;;;;;;4938662;29;20238;-72
2022/01/02 09:49:47;;;;;;;12.20;7.63;;;21.30;53.40;;;;;;4938617;29;20182;-72
2022/01/02 09:52:15;;;;;;;8.30;7.00;;;21.30;53.40;;;;;;4938641;29;20191;-72
2022/01/02 09:54:41;;;;;;;9.10;7.32;;;21.30;53.40;;;;;;4953775;29;20222;-74
2022/01/02 09:57:07;;;;;;;8.07;6.75;;;21.30;53.40;;;;;;4949661;28;20218;-72
2022/01/02 09:59:32;;;;;;;9.68;6.70;;;21.30;53.40;;;;;;4922674;29;20215;-73
2022/01/02 10:01:59;;;;;;;8.20;7.05;;;21.30;53.30;;;;;;4922809;29;20709;-74
2022/01/02 10:04:40;;;;;;;9.05;7.05;;;21.30;53.30;;;;;;4921963;29;20218;-75
2022/01/02 10:07:31;;;;;;;12.10;8.90;;;21.30;53.30;;;;;;4960613;28;20189;-74
2022/01/02 10:10:06;;;;;;;14.27;10.38;;;21.40;53.90;;;;;;4950203;28;20277;-69
2022/01/02 10:12:33;;;;;;;27.90;13.13;;;21.40;54.20;;;;;;4959866;28;20287;-72
2022/01/02 10:15:19;;;;;;;20.38;14.15;;;21.40;55.60;;;;;;4956543;28;20226;-70
2022/01/02 10:17:55;;;;;;;19.38;14.10;;;21.40;56.00;;;;;;4932184;29;20221;-70
2022/01/02 10:20:40;;;;;;;20.77;13.90;;;21.50;56.00;;;;;;4962135;28;20190;-70
2022/01/02 10:23:24;;;;;;;18.60;12.43;;;21.50;56.60;;;;;;4954296;29;20186;-71
2022/01/02 10:25:55;;;;;;;20.48;12.65;;;21.50;56.40;;;;;;4953708;29;20190;-70
2022/01/02 10:28:26;;;;;;;21.55;13.68;;;21.50;55.80;;;;;;4933057;29;20207;-70
2022/01/02 10:31:15;;;;;;;18.08;12.90;;;21.50;55.60;;;;;;4936190;29;20197;-70
2022/01/02 10:33:59;;;;;;;17.20;12.25;;;21.50;55.60;;;;;;4937745;28;20252;-71
2022/01/02 10:36:31;;;;;;;17.73;12.00;;;21.40;55.50;;;;;;4937522;29;20194;-70
2022/01/02 10:39:15;;;;;;;15.52;11.20;;;21.40;55.40;;;;;;4923626;29;20229;-69
2022/01/02 10:41:50;;;;;;;14.35;10.20;;;21.40;55.20;;;;;;4942481;29;20195;-71
2022/01/02 10:44:16;;;;;;;14.43;10.32;;;21.40;55.10;;;;;;4936559;29;20190;-70
2022/01/02 10:47:15;;;;;;;14.07;10.73;;;21.40;55.00;;;;;;4937504;29;20182;-70
2022/01/02 10:50:05;;;;;;;14.05;10.93;;;21.40;54.90;;;;;;4953535;29;20201;-71
2022/01/02 10:52:40;;;;;;;13.05;10.50;;;21.40;54.80;;;;;;4921807;29;20183;-71
2022/01/02 10:55:28;;;;;;;14.35;11.35;;;21.40;54.80;;;;;;4937616;29;20202;-69
2022/01/02 10:57:57;;;;;;;13.80;10.20;;;21.40;54.70;;;;;;4921575;29;20260;-70
2022/01/02 11:00:27;;;;;;;13.32;9.40;;;21.40;54.60;;;;;;4937340;29;20650;-70
2022/01/02 11:02:53;;;;;;;14.02;9.52;;;21.40;54.60;;;;;;4937410;29;20187;-69
2022/01/02 11:05:22;;;;;;;11.80;9.70;;;21.40;54.50;;;;;;4937605;29;20555;-70
2022/01/02 11:07:58;;;;;;;13.30;9.48;;;21.40;54.40;;;;;;4921407;29;20322;-70
2022/01/02 11:10:27;;;;;;;12.05;9.57;;;21.40;54.40;;;;;;4937318;29;20277;-70
2022/01/02 11:12:54;;;;;;;12.48;9.98;;;21.40;54.30;;;;;;4937301;29;20186;-70
2022/01/02 11:15:24;;;;;;;11.50;8.75;;;21.40;54.30;;;;;;4936482;29;20214;-70
2022/01/02 11:17:51;;;;;;;13.02;9.48;;;21.40;54.30;;;;;;4925212;29;20210;-70
2022/01/02 11:20:20;;;;;;;11.07;8.55;;;21.40;54.30;;;;;;4917856;29;20277;-70
2022/01/02 11:23:04;;;;;;;12.93;8.80;;;21.40;54.20;;;;;;4908736;29;20190;-70
2022/01/02 11:25:51;;;;;;;11.52;9.23;;;21.40;54.20;;;;;;4952799;28;20205;-70
2022/01/02 11:28:25;;;;;;;9.10;7.85;;;21.40;54.20;;;;;;4936673;29;20349;-70
2022/01/02 11:30:54;;;;;;;12.48;9.35;;;21.40;54.20;;;;;;4926435;29;20198;-75
2022/01/02 11:33:31;;;;;;;9.88;8.45;;;21.40;54.20;;;;;;4951538;29;20218;-70
2022/01/02 11:36:01;;;;;;;13.70;9.13;;;21.40;54.30;;;;;;4935218;29;20190;-70
2022/01/02 11:38:43;;;;;;;10.13;8.68;;;21.40;54.30;;;;;;4952491;29;20245;-70
2022/01/02 11:41:09;;;;;;;10.52;8.93;;;21.40;54.30;;;;;;4935542;29;20175;-70
2022/01/02 11:43:35;;;;;;;9.77;8.40;;;21.40;54.20;;;;;;4936397;29;20232;-70
2022/01/02 11:46:39;;;;;;;10.68;8.68;;;21.40;54.20;;;;;;4921226;29;20194;-70
2022/01/02 11:49:04;;;;;;;9.85;8.10;;;21.40;54.20;;;;;;4953780;29;20228;-70
2022/01/02 11:51:48;;;;;;;9.75;8.18;;;21.40;54.10;;;;;;4929060;29;20203;-72
2022/01/02 11:54:30;;;;;;;9.07;8.02;;;21.40;54.10;;;;;;4917949;29;20226;-70
2022/01/02 11:57:03;;;;;;;10.30;8.07;;;21.40;54.20;;;;;;4918065;29;20222;-70
2022/01/02 11:59:43;;;;;;;9.15;7.30;;;21.40;54.10;;;;;;4917988;29;20250;-71
2022/01/02 12:02:18;;;;;;;9.43;7.63;;;21.40;54.00;;;;;;4918162;29;20191;-71
2022/01/02 12:05:01;;;;;;;8.43;7.50;;;21.40;54.00;;;;;;4917885;29;20222;-71
2022/01/02 12:07:33;;;;;;;8.15;6.95;;;21.40;54.00;;;;;;4917974;29;20215;-70
2022/01/02 12:10:14;;;;;;;8.43;7.55;;;21.40;53.90;;;;;;4917776;29;20250;-71
2022/01/02 12:13:26;;;;;;;8.70;7.40;;;21.40;53.90;;;;;;4917727;29;20188;-71
2022/01/02 12:15:55;;;;;;;8.93;7.70;;;21.40;53.90;;;;;;4932913;29;20277;-70
2022/01/02 12:18:29;;;;;;;10.85;8.13;;;21.40;53.80;;;;;;4917867;29;20317;-70
2022/01/02 12:20:57;;;;;;;8.20;7.07;;;21.40;53.80;;;;;;4917913;29;20199;-70
2022/01/02 12:23:42;;;;;;;7.97;6.97;;;21.50;54.00;;;;;;4917600;29;20183;-70
2022/01/02 12:26:12;;;;;;;8.05;7.05;;;21.40;53.90;;;;;;4917762;29;20179;-70
2022/01/02 12:28:57;;;;;;;7.20;6.50;;;21.40;53.80;;;;;;4917414;29;20246;-73
2022/01/02 12:31:38;;;;;;;9.98;6.78;;;21.40;53.80;;;;;;4902257;29;20570;-72
2022/01/02 12:34:14;;;;;;;7.53;6.72;;;21.40;53.70;;;;;;4903598;29;20207;-72
2022/01/02 12:36:49;;;;;;;7.38;6.43;;;21.40;53.60;;;;;;4937149;29;20587;-75
2022/01/02 12:39:32;;;;;;;7.45;6.65;;;21.40;53.60;;;;;;4921041;29;20219;-74
2022/01/02 12:42:16;;;;;;;7.13;6.43;;;21.50;53.70;;;;;;4905269;29;20179;-75
2022/01/02 12:44:43;;;;;;;8.02;6.35;;;21.50;53.60;;;;;;4937432;29;20195;-75
2022/01/02 12:47:12;;;;;;;7.55;6.78;;;21.40;53.50;;;;;;4936128;29;20277;-76
2022/01/02 12:49:41;;;;;;;8.10;6.53;;;21.50;53.60;;;;;;4938869;29;20218;-75
2022/01/02 12:52:13;;;;;;;8.40;6.35;;;21.50;53.80;;;;;;4957186;29;20245;-77
2022/01/02 12:54:47;;;;;;;9.75;6.30;;;21.50;53.90;;;;;;4923521;29;20245;-76
2022/01/02 12:57:15;;;;;;;7.65;5.88;;;21.50;54.00;;;;;;4923893;29;20217;-75
2022/01/02 12:59:47;;;;;;;6.00;5.30;;;21.50;53.90;;;;;;4951064;28;20205;-76
2022/01/02 13:02:25;;;;;;;8.15;6.10;;;21.50;53.80;;;;;;4940085;29;20193;-75